createdAt,value
2017-07-10T00:00:22.395Z,54.77
2017-07-10T00:01:22.750Z,54.77
2017-07-10T00:02:22.455Z,54.77
2017-07-10T00:03:22.810Z,54.87
2017-07-10T00:04:22.840Z,55.16
2017-07-10T00:05:22.559Z,55.07
2017-07-10T00:06:22.833Z,54.97
2017-07-10T00:07:22.613Z,54.97
2017-07-10T00:08:22.646Z,55.16
2017-07-10T00:09:22.675Z,54.87
2017-07-10T00:10:22.703Z,54.87
2017-07-10T00:11:23.305Z,54.87
2017-07-10T00:12:22.766Z,54.77
2017-07-10T00:13:22.790Z,55.07
2017-07-10T00:14:23.142Z,54.87
2017-07-10T00:15:23.176Z,55.07
2017-07-10T00:16:23.189Z,54.97
2017-07-10T00:17:23.247Z,54.87
2017-07-10T00:18:23.266Z,54.97
2017-07-10T00:19:23.297Z,54.87
2017-07-10T00:20:23.324Z,54.87
2017-07-10T00:21:23.613Z,54.77
2017-07-10T00:22:23.070Z,54.97
2017-07-10T00:23:23.411Z,54.77
2017-07-10T00:24:23.449Z,54.77
2017-07-10T00:25:23.161Z,54.87
2017-07-10T00:26:23.761Z,54.77
2017-07-10T00:27:23.538Z,54.97
2017-07-10T00:28:23.254Z,55.07
2017-07-10T00:29:23.284Z,54.77
2017-07-10T00:30:23.633Z,54.87
2017-07-10T00:31:23.646Z,54.77
2017-07-10T00:32:23.370Z,54.97
2017-07-10T00:33:23.727Z,54.77
2017-07-10T00:34:23.436Z,55.07
2017-07-10T00:35:23.794Z,54.77
2017-07-10T00:36:24.069Z,54.97
2017-07-10T00:37:23.835Z,54.77
2017-07-10T00:38:23.560Z,54.77
2017-07-10T00:39:23.584Z,54.77
2017-07-10T00:40:23.938Z,54.77
2017-07-10T00:41:24.273Z,54.77
2017-07-10T00:42:23.995Z,54.77
2017-07-10T00:43:23.700Z,54.68
2017-07-10T00:44:24.057Z,54.87
2017-07-10T00:45:24.091Z,54.97
2017-07-10T00:46:24.061Z,54.48
2017-07-10T00:47:24.152Z,54.97
2017-07-10T00:48:24.188Z,55.07
2017-07-10T00:49:23.893Z,55.46
2017-07-10T00:50:24.251Z,55.46
2017-07-10T00:51:24.254Z,55.26
2017-07-10T00:52:24.301Z,55.36
2017-07-10T00:53:24.016Z,55.36
2017-07-10T00:54:24.369Z,55.16
2017-07-10T00:55:24.078Z,55.16
2017-07-10T00:56:24.359Z,55.36
2017-07-10T00:57:24.140Z,55.46
2017-07-10T00:58:24.491Z,55.26
2017-07-10T00:59:24.196Z,55.36
2017-07-10T01:00:24.232Z,55.07
2017-07-10T01:01:24.883Z,55.07
2017-07-10T01:02:24.288Z,55.16
2017-07-10T01:03:24.321Z,55.16
2017-07-10T01:04:24.668Z,55.16
2017-07-10T01:05:24.707Z,55.16
2017-07-10T01:06:24.667Z,55.36
2017-07-10T01:07:24.769Z,55.36
2017-07-10T01:08:24.472Z,55.46
2017-07-10T01:09:24.498Z,55.26
2017-07-10T01:10:24.859Z,55.26
2017-07-10T01:11:24.815Z,55.26
2017-07-10T01:12:24.597Z,55.26
2017-07-10T01:13:24.941Z,55.16
2017-07-10T01:14:24.978Z,55.16
2017-07-10T01:15:24.687Z,55.26
2017-07-10T01:16:25.280Z,55.26
2017-07-10T01:17:24.742Z,55.75
2017-07-10T01:18:24.774Z,55.46
2017-07-10T01:19:24.806Z,55.55
2017-07-10T01:20:25.158Z,55.26
2017-07-10T01:21:25.447Z,54.68
2017-07-10T01:22:24.896Z,54.77
2017-07-10T01:23:24.929Z,54.97
2017-07-10T01:24:24.962Z,55.26
2017-07-10T01:25:25.313Z,54.97
2017-07-10T01:26:25.584Z,55.55
2017-07-10T01:27:25.052Z,55.55
2017-07-10T01:28:25.398Z,55.36
2017-07-10T01:29:25.430Z,55.55
2017-07-10T01:30:25.143Z,55.16
2017-07-10T01:31:25.744Z,55.16
2017-07-10T01:32:25.525Z,54.77
2017-07-10T01:33:25.550Z,55.26
2017-07-10T01:34:25.587Z,54.48
2017-07-10T01:35:25.608Z,55.36
2017-07-10T01:36:25.576Z,55.46
2017-07-10T01:37:25.357Z,54.97
2017-07-10T01:38:25.706Z,55.46
2017-07-10T01:39:25.735Z,55.46
2017-07-10T01:40:25.764Z,54.97
2017-07-10T01:41:26.052Z,55.16
2017-07-10T01:42:25.504Z,54.97
2017-07-10T01:43:25.539Z,55.07
2017-07-10T01:44:25.891Z,55.55
2017-07-10T01:45:25.600Z,55.46
2017-07-10T01:46:25.928Z,55.26
2017-07-10T01:47:25.976Z,55.16
2017-07-10T01:48:25.690Z,55.36
2017-07-10T01:49:26.043Z,55.07
2017-07-10T01:50:25.752Z,55.16
2017-07-10T01:51:26.361Z,55.16
2017-07-10T01:52:26.134Z,55.46
2017-07-10T01:53:26.163Z,55.36
2017-07-10T01:54:25.872Z,55.07
2017-07-10T01:55:26.223Z,55.16
2017-07-10T01:56:26.257Z,55.65
2017-07-10T01:57:26.281Z,55.26
2017-07-10T01:58:25.996Z,55.26
2017-07-10T01:59:26.348Z,55.26
2017-07-10T02:00:26.377Z,55.46
2017-07-10T02:01:26.083Z,55.36
2017-07-10T02:02:26.115Z,55.75
2017-07-10T02:03:26.148Z,55.65
2017-07-10T02:04:26.179Z,55.55
2017-07-10T02:05:26.529Z,54.97
2017-07-10T02:06:26.238Z,55.36
2017-07-10T02:07:26.591Z,55.36
2017-07-10T02:08:26.300Z,55.36
2017-07-10T02:09:26.651Z,55.46
2017-07-10T02:10:26.669Z,55.33
2017-07-10T02:11:26.385Z,55.55
2017-07-10T02:12:26.743Z,55.36
2017-07-10T02:13:26.823Z,55.36
2017-07-10T02:14:26.484Z,55.26
2017-07-10T02:15:26.828Z,55.36
2017-07-10T02:16:26.542Z,55.33
2017-07-10T02:17:26.891Z,55.33
2017-07-10T02:18:26.923Z,55.23
2017-07-10T02:19:26.949Z,55.36
2017-07-10T02:20:26.665Z,55.46
2017-07-10T02:21:26.697Z,55.26
2017-07-10T02:22:27.048Z,54.87
2017-07-10T02:23:26.755Z,54.77
2017-07-10T02:24:27.109Z,54.97
2017-07-10T02:25:27.144Z,55.26
2017-07-10T02:26:26.846Z,55.36
2017-07-10T02:27:27.200Z,55.26
2017-07-10T02:28:27.220Z,55.46
2017-07-10T02:29:27.261Z,55.16
2017-07-10T02:30:26.972Z,55.16
2017-07-10T02:31:27.005Z,55.26
2017-07-10T02:32:27.352Z,55.16
2017-07-10T02:33:27.062Z,55.16
2017-07-10T02:34:27.412Z,55.23
2017-07-10T02:35:27.118Z,55.23
2017-07-10T02:36:27.152Z,55.36
2017-07-10T02:37:27.179Z,55.13
2017-07-10T02:38:27.212Z,55.13
2017-07-10T02:39:27.567Z,55.13
2017-07-10T02:40:27.599Z,55.13
2017-07-10T02:41:27.620Z,55.33
2017-07-10T02:42:27.656Z,55.16
2017-07-10T02:43:27.690Z,55.33
2017-07-10T02:44:27.713Z,55.23
2017-07-10T02:45:27.740Z,55.23
2017-07-10T02:46:27.450Z,54.94
2017-07-10T02:47:28.101Z,55.52
2017-07-10T02:48:27.841Z,55.33
2017-07-10T02:49:27.549Z,55.33
2017-07-10T02:50:27.897Z,55.33
2017-07-10T02:51:27.607Z,55.33
2017-07-10T02:52:27.886Z,55.43
2017-07-10T02:53:27.989Z,55.04
2017-07-10T02:54:28.019Z,55.33
2017-07-10T02:55:28.046Z,55.23
2017-07-10T02:56:28.085Z,55.43
2017-07-10T02:57:28.088Z,55.43
2017-07-10T02:58:28.202Z,55.43
2017-07-10T02:59:28.193Z,55.43
2017-07-10T03:00:27.880Z,55.52
2017-07-10T03:01:28.232Z,55.33
2017-07-10T03:02:28.508Z,55.52
2017-07-10T03:03:28.290Z,55.43
2017-07-10T03:04:27.994Z,55.62
2017-07-10T03:05:28.351Z,55.72
2017-07-10T03:06:28.380Z,55.62
2017-07-10T03:07:28.718Z,55.82
2017-07-10T03:08:28.124Z,55.62
2017-07-10T03:09:28.155Z,55.91
2017-07-10T03:10:28.503Z,55.62
2017-07-10T03:11:28.532Z,55.72
2017-07-10T03:12:28.857Z,55.91
2017-07-10T03:13:28.595Z,56.01
2017-07-10T03:14:28.311Z,55.72
2017-07-10T03:15:28.338Z,55.82
2017-07-10T03:16:28.361Z,56.01
2017-07-10T03:17:28.697Z,56.01
2017-07-10T03:18:28.744Z,55.43
2017-07-10T03:19:28.776Z,55.82
2017-07-10T03:20:28.481Z,56.11
2017-07-10T03:21:28.833Z,55.43
2017-07-10T03:22:29.112Z,56.01
2017-07-10T03:23:28.897Z,55.23
2017-07-10T03:24:28.928Z,55.72
2017-07-10T03:25:28.638Z,55.72
2017-07-10T03:26:28.669Z,55.33
2017-07-10T03:27:29.278Z,55.62
2017-07-10T03:28:29.052Z,55.5
2017-07-10T03:29:28.763Z,55.33
2017-07-10T03:30:28.794Z,55.69
2017-07-10T03:31:29.145Z,55.89
2017-07-10T03:32:29.171Z,55.4
2017-07-10T03:33:29.202Z,55.3
2017-07-10T03:34:28.912Z,55.6
2017-07-10T03:35:29.265Z,55.4
2017-07-10T03:36:29.290Z,55.4
2017-07-10T03:37:29.323Z,55.4
2017-07-10T03:38:29.033Z,55.52
2017-07-10T03:39:29.063Z,55.79
2017-07-10T03:40:29.419Z,55.69
2017-07-10T03:41:29.125Z,55.43
2017-07-10T03:42:29.479Z,55.69
2017-07-10T03:43:29.499Z,55.3
2017-07-10T03:44:29.212Z,55.4
2017-07-10T03:45:29.249Z,55.6
2017-07-10T03:46:29.597Z,55.5
2017-07-10T03:47:29.626Z,55.69
2017-07-10T03:48:29.659Z,55.4
2017-07-10T03:49:29.688Z,55.4
2017-07-10T03:50:29.721Z,55.69
2017-07-10T03:51:29.745Z,55.3
2017-07-10T03:52:29.458Z,55.4
2017-07-10T03:53:29.496Z,55.72
2017-07-10T03:54:29.517Z,55.5
2017-07-10T03:55:29.549Z,55.5
2017-07-10T03:56:29.582Z,55.89
2017-07-10T03:57:29.611Z,55.5
2017-07-10T03:58:29.639Z,55.69
2017-07-10T03:59:29.673Z,55.3
2017-07-10T04:00:30.021Z,55.5
2017-07-10T04:01:29.723Z,55.43
2017-07-10T04:02:30.082Z,55.89
2017-07-10T04:03:30.112Z,55.89
2017-07-10T04:04:30.149Z,56.09
2017-07-10T04:05:30.176Z,55.79
2017-07-10T04:06:29.877Z,55.89
2017-07-10T04:07:29.916Z,55.69
2017-07-10T04:08:30.504Z,55.99
2017-07-10T04:09:29.973Z,55.89
2017-07-10T04:10:30.317Z,56.18
2017-07-10T04:11:30.355Z,55.69
2017-07-10T04:12:30.380Z,55.6
2017-07-10T04:13:30.667Z,55.89
2017-07-10T04:14:30.440Z,55.4
2017-07-10T04:15:30.159Z,55.4
2017-07-10T04:16:30.187Z,55.89
2017-07-10T04:17:30.532Z,55.89
2017-07-10T04:18:30.501Z,55.79
2017-07-10T04:19:30.273Z,55.89
2017-07-10T04:20:30.307Z,55.5
2017-07-10T04:21:30.655Z,55.5
2017-07-10T04:22:30.683Z,55.5
2017-07-10T04:23:30.964Z,55.69
2017-07-10T04:24:30.749Z,55.89
2017-07-10T04:25:30.779Z,55.4
2017-07-10T04:26:30.488Z,55.01
2017-07-10T04:27:30.522Z,55.5
2017-07-10T04:28:31.167Z,55.6
2017-07-10T04:29:30.575Z,55.6
2017-07-10T04:30:30.611Z,55.4
2017-07-10T04:31:30.640Z,55.4
2017-07-10T04:32:31.005Z,55.4
2017-07-10T04:33:31.321Z,55.6
2017-07-10T04:34:31.047Z,55.69
2017-07-10T04:35:31.086Z,55.5
2017-07-10T04:36:30.791Z,55.5
2017-07-10T04:37:31.141Z,55.69
2017-07-10T04:38:31.165Z,55.69
2017-07-10T04:39:30.883Z,55.4
2017-07-10T04:40:30.917Z,55.4
2017-07-10T04:41:31.260Z,55.43
2017-07-10T04:42:30.973Z,55.3
2017-07-10T04:43:31.001Z,55.33
2017-07-10T04:44:31.351Z,55.3
2017-07-10T04:45:31.383Z,55.11
2017-07-10T04:46:31.408Z,55.01
2017-07-10T04:47:31.125Z,55.01
2017-07-10T04:48:31.477Z,55.4
2017-07-10T04:49:31.183Z,55.11
2017-07-10T04:50:31.527Z,55.33
2017-07-10T04:51:31.241Z,55.01
2017-07-10T04:52:31.596Z,55.01
2017-07-10T04:53:31.628Z,55.04
2017-07-10T04:54:31.657Z,55.11
2017-07-10T04:55:31.370Z,55.3
2017-07-10T04:56:31.720Z,55.33
2017-07-10T04:57:31.750Z,55.69
2017-07-10T04:58:31.785Z,55.21
2017-07-10T04:59:31.807Z,55.11
2017-07-10T05:00:31.517Z,55.21
2017-07-10T05:01:31.868Z,55.6
2017-07-10T05:02:31.897Z,55.33
2017-07-10T05:03:31.922Z,55.6
2017-07-10T05:04:31.959Z,55.3
2017-07-10T05:05:31.670Z,55.3
2017-07-10T05:06:31.694Z,55.21
2017-07-10T05:07:32.049Z,55.21
2017-07-10T05:08:31.756Z,55.21
2017-07-10T05:09:32.108Z,55.01
2017-07-10T05:10:31.822Z,55.3
2017-07-10T05:11:31.850Z,54.91
2017-07-10T05:12:32.193Z,55.01
2017-07-10T05:13:31.911Z,55.01
2017-07-10T05:14:31.939Z,54.72
2017-07-10T05:15:32.288Z,54.72
2017-07-10T05:16:32.321Z,54.91
2017-07-10T05:17:32.355Z,54.62
2017-07-10T05:18:32.058Z,55.01
2017-07-10T05:19:32.091Z,54.91
2017-07-10T05:20:32.120Z,54.72
2017-07-10T05:21:32.465Z,54.72
2017-07-10T05:22:32.494Z,54.82
2017-07-10T05:23:32.531Z,54.85
2017-07-10T05:24:32.570Z,55.01
2017-07-10T05:25:32.272Z,54.52
2017-07-10T05:26:32.629Z,54.82
2017-07-10T05:27:32.659Z,54.82
2017-07-10T05:28:32.359Z,55.01
2017-07-10T05:29:32.387Z,55.01
2017-07-10T05:30:32.437Z,55.01
2017-07-10T05:31:32.455Z,54.82
2017-07-10T05:32:32.483Z,55.01
2017-07-10T05:33:32.836Z,54.91
2017-07-10T05:34:32.871Z,54.94
2017-07-10T05:35:32.896Z,55.21
2017-07-10T05:36:32.605Z,55.01
2017-07-10T05:37:32.634Z,54.72
2017-07-10T05:38:32.664Z,54.91
2017-07-10T05:39:32.949Z,54.82
2017-07-10T05:40:32.725Z,54.72
2017-07-10T05:41:32.758Z,54.82
2017-07-10T05:42:33.107Z,55.01
2017-07-10T05:43:32.818Z,54.72
2017-07-10T05:44:33.147Z,54.72
2017-07-10T05:45:33.209Z,54.82
2017-07-10T05:46:32.913Z,54.72
2017-07-10T05:47:32.931Z,54.72
2017-07-10T05:48:33.287Z,54.82
2017-07-10T05:49:33.292Z,54.91
2017-07-10T05:50:33.345Z,54.82
2017-07-10T05:51:33.062Z,54.72
2017-07-10T05:52:33.091Z,54.91
2017-07-10T05:53:33.121Z,54.72
2017-07-10T05:54:33.403Z,54.82
2017-07-10T05:55:33.500Z,54.91
2017-07-10T05:56:33.530Z,55.01
2017-07-10T05:57:33.243Z,55.01
2017-07-10T05:58:33.268Z,54.91
2017-07-10T05:59:33.544Z,54.72
2017-07-10T06:00:33.334Z,55.01
2017-07-10T06:01:33.370Z,55.01
2017-07-10T06:02:33.392Z,54.91
2017-07-10T06:03:33.423Z,54.82
2017-07-10T06:04:34.032Z,54.72
2017-07-10T06:05:33.798Z,54.52
2017-07-10T06:06:33.818Z,55.21
2017-07-10T06:07:33.859Z,54.91
2017-07-10T06:08:33.572Z,54.91
2017-07-10T06:09:33.858Z,54.52
2017-07-10T06:10:33.973Z,55.01
2017-07-10T06:11:33.977Z,54.91
2017-07-10T06:12:34.025Z,55.01
2017-07-10T06:13:34.056Z,55.11
2017-07-10T06:14:34.369Z,55.11
2017-07-10T06:15:33.788Z,54.62
2017-07-10T06:16:33.815Z,55.3
2017-07-10T06:17:34.160Z,55.6
2017-07-10T06:18:33.877Z,54.91
2017-07-10T06:19:34.161Z,55.4
2017-07-10T06:20:33.939Z,55.21
2017-07-10T06:21:34.288Z,55.3
2017-07-10T06:22:34.313Z,55.5
2017-07-10T06:23:34.341Z,55.4
2017-07-10T06:24:34.354Z,55.21
2017-07-10T06:25:34.093Z,55.11
2017-07-10T06:26:34.439Z,55.11
2017-07-10T06:27:34.154Z,55.11
2017-07-10T06:28:34.177Z,55.4
2017-07-10T06:29:34.830Z,55.21
2017-07-10T06:30:34.565Z,55.11
2017-07-10T06:31:34.271Z,55.6
2017-07-10T06:32:34.616Z,55.11
2017-07-10T06:33:34.337Z,55.21
2017-07-10T06:34:34.612Z,54.72
2017-07-10T06:35:34.387Z,54.91
2017-07-10T06:36:34.750Z,55.11
2017-07-10T06:37:34.449Z,54.82
2017-07-10T06:38:34.477Z,55.01
2017-07-10T06:39:35.135Z,55.11
2017-07-10T06:40:34.544Z,55.21
2017-07-10T06:41:34.572Z,55.3
2017-07-10T06:42:34.612Z,55.5
2017-07-10T06:43:34.633Z,55.4
2017-07-10T06:44:35.233Z,55.21
2017-07-10T06:45:34.692Z,55.5
2017-07-10T06:46:34.723Z,55.5
2017-07-10T06:47:35.080Z,55.21
2017-07-10T06:48:35.105Z,54.82
2017-07-10T06:49:35.114Z,55.6
2017-07-10T06:50:35.170Z,55.11
2017-07-10T06:51:35.200Z,54.72
2017-07-10T06:52:34.905Z,55.01
2017-07-10T06:53:35.253Z,54.82
2017-07-10T06:54:35.218Z,54.62
2017-07-10T06:55:35.314Z,54.72
2017-07-10T06:56:35.348Z,54.72
2017-07-10T06:57:35.373Z,54.85
2017-07-10T06:58:35.137Z,55.01
2017-07-10T06:59:35.685Z,55.01
2017-07-10T07:00:35.473Z,54.72
2017-07-10T07:01:35.500Z,54.46
2017-07-10T07:02:35.529Z,54.75
2017-07-10T07:03:35.549Z,54.65
2017-07-10T07:04:35.270Z,54.75
2017-07-10T07:05:35.621Z,54.75
2017-07-10T07:06:35.653Z,54.75
2017-07-10T07:07:35.361Z,54.65
2017-07-10T07:08:35.391Z,54.46
2017-07-10T07:09:35.743Z,54.36
2017-07-10T07:10:35.448Z,54.75
2017-07-10T07:11:35.803Z,54.46
2017-07-10T07:12:35.825Z,54.55
2017-07-10T07:13:35.541Z,54.46
2017-07-10T07:14:35.571Z,54.46
2017-07-10T07:15:35.608Z,54.55
2017-07-10T07:16:35.952Z,54.46
2017-07-10T07:17:35.985Z,54.46
2017-07-10T07:18:35.694Z,54.26
2017-07-10T07:19:35.722Z,54.55
2017-07-10T07:20:36.076Z,54.55
2017-07-10T07:21:36.096Z,54.46
2017-07-10T07:22:36.130Z,54.46
2017-07-10T07:23:35.846Z,54.46
2017-07-10T07:24:36.195Z,54.65
2017-07-10T07:25:36.224Z,54.46
2017-07-10T07:26:35.932Z,54.65
2017-07-10T07:27:36.280Z,54.36
2017-07-10T07:28:35.998Z,54.55
2017-07-10T07:29:36.023Z,54.55
2017-07-10T07:30:36.365Z,54.36
2017-07-10T07:31:36.407Z,54.65
2017-07-10T07:32:36.439Z,54.26
2017-07-10T07:33:36.526Z,54.26
2017-07-10T07:34:36.499Z,54.06
2017-07-10T07:35:36.527Z,53.97
2017-07-10T07:36:36.566Z,54.06
2017-07-10T07:37:36.599Z,54.06
2017-07-10T07:38:36.305Z,53.97
2017-07-10T07:39:36.334Z,54.06
2017-07-10T07:40:36.682Z,54.26
2017-07-10T07:41:36.713Z,54.16
2017-07-10T07:42:36.422Z,53.97
2017-07-10T07:43:36.771Z,53.87
2017-07-10T07:44:36.800Z,54.16
2017-07-10T07:45:36.832Z,53.87
2017-07-10T07:46:36.867Z,54.36
2017-07-10T07:47:36.574Z,54.16
2017-07-10T07:48:36.922Z,54.06
2017-07-10T07:49:36.956Z,53.48
2017-07-10T07:50:36.662Z,53.48
2017-07-10T07:51:37.006Z,53.28
2017-07-10T07:52:37.033Z,53.58
2017-07-10T07:53:37.078Z,53.77
2017-07-10T07:54:36.788Z,53.77
2017-07-10T07:55:37.136Z,53.58
2017-07-10T07:56:37.166Z,53.31
2017-07-10T07:57:37.199Z,53.09
2017-07-10T07:58:36.911Z,53.41
2017-07-10T07:59:36.940Z,53.58
2017-07-10T08:00:37.294Z,53.11
2017-07-10T08:01:37.314Z,52.99
2017-07-10T08:02:37.351Z,53.6
2017-07-10T08:03:37.377Z,52.99
2017-07-10T08:04:37.415Z,53.31
2017-07-10T08:05:37.445Z,53.31
2017-07-10T08:06:37.154Z,53.19
2017-07-10T08:07:37.187Z,53.09
2017-07-10T08:08:37.543Z,53.02
2017-07-10T08:09:37.561Z,53.21
2017-07-10T08:10:37.596Z,53.09
2017-07-10T08:11:37.308Z,53.19
2017-07-10T08:12:37.655Z,52.8
2017-07-10T08:13:37.368Z,53.31
2017-07-10T08:14:37.709Z,53.31
2017-07-10T08:15:37.754Z,52.6
2017-07-10T08:16:37.459Z,52.53
2017-07-10T08:17:37.808Z,52.4
2017-07-10T08:18:37.839Z,52.6
2017-07-10T08:19:37.868Z,53.31
2017-07-10T08:20:37.830Z,52.92
2017-07-10T08:21:37.611Z,52.5
2017-07-10T08:22:37.960Z,52.99
2017-07-10T08:23:37.668Z,52.8
2017-07-10T08:24:37.702Z,52.63
2017-07-10T08:25:38.306Z,52.63
2017-07-10T08:26:38.078Z,52.92
2017-07-10T08:27:38.108Z,52.83
2017-07-10T08:28:37.829Z,52.73
2017-07-10T08:29:38.174Z,52.92
2017-07-10T08:30:38.186Z,52.63
2017-07-10T08:31:37.910Z,53.02
2017-07-10T08:32:37.947Z,52.53
2017-07-10T08:33:38.297Z,52.92
2017-07-10T08:34:38.330Z,52.73
2017-07-10T08:35:38.290Z,52.83
2017-07-10T08:36:38.379Z,52.24
2017-07-10T08:37:38.099Z,52.14
2017-07-10T08:38:38.445Z,52.14
2017-07-10T08:39:38.473Z,52.14
2017-07-10T08:40:38.764Z,52.04
2017-07-10T08:41:38.533Z,52.44
2017-07-10T08:42:38.576Z,51.65
2017-07-10T08:43:38.285Z,52.44
2017-07-10T08:44:38.625Z,52.24
2017-07-10T08:45:38.594Z,52.34
2017-07-10T08:46:38.692Z,52.34
2017-07-10T08:47:38.724Z,52.04
2017-07-10T08:48:38.755Z,52.14
2017-07-10T08:49:38.780Z,52.24
2017-07-10T08:50:39.071Z,52.24
2017-07-10T08:51:38.851Z,51.95
2017-07-10T08:52:38.877Z,52.14
2017-07-10T08:53:38.903Z,52.34
2017-07-10T08:54:38.940Z,52.34
2017-07-10T08:55:39.217Z,52.83
2017-07-10T08:56:39.001Z,52.73
2017-07-10T08:57:39.027Z,52.53
2017-07-10T08:58:39.069Z,52.63
2017-07-10T08:59:39.095Z,52.73
2017-07-10T09:00:39.048Z,52.63
2017-07-10T09:01:39.148Z,52.92
2017-07-10T09:02:38.863Z,52.83
2017-07-10T09:03:38.898Z,52.83
2017-07-10T09:04:38.923Z,52.92
2017-07-10T09:05:39.253Z,52.92
2017-07-10T09:06:38.986Z,52.83
2017-07-10T09:07:39.341Z,52.34
2017-07-10T09:08:39.047Z,52.63
2017-07-10T09:09:39.394Z,52.53
2017-07-10T09:10:39.729Z,52.73
2017-07-10T09:11:39.452Z,52.73
2017-07-10T09:12:39.486Z,52.83
2017-07-10T09:13:39.519Z,52.24
2017-07-10T09:14:39.598Z,52.34
2017-07-10T09:15:39.258Z,52.34
2017-07-10T09:16:39.609Z,52.04
2017-07-10T09:17:39.645Z,52.24
2017-07-10T09:18:39.355Z,52.24
2017-07-10T09:19:39.374Z,52.44
2017-07-10T09:20:39.730Z,52.24
2017-07-10T09:21:39.441Z,52.24
2017-07-10T09:22:39.786Z,52.24
2017-07-10T09:23:39.819Z,52.24
2017-07-10T09:24:39.529Z,52.12
2017-07-10T09:25:39.560Z,52.34
2017-07-10T09:26:39.905Z,52.34
2017-07-10T09:27:39.946Z,52.34
2017-07-10T09:28:39.654Z,52.44
2017-07-10T09:29:40.008Z,52.34
2017-07-10T09:30:40.037Z,52.24
2017-07-10T09:31:40.059Z,52.24
2017-07-10T09:32:40.099Z,52.22
2017-07-10T09:33:39.806Z,52.14
2017-07-10T09:34:40.155Z,52.53
2017-07-10T09:35:40.183Z,52.34
2017-07-10T09:36:39.901Z,52.34
2017-07-10T09:37:40.255Z,52.34
2017-07-10T09:38:40.286Z,52.6
2017-07-10T09:39:40.314Z,52.6
2017-07-10T09:40:40.020Z,52.7
2017-07-10T09:41:40.053Z,52.7
2017-07-10T09:42:40.398Z,52.7
2017-07-10T09:43:40.441Z,52.89
2017-07-10T09:44:40.144Z,52.8
2017-07-10T09:45:40.492Z,52.83
2017-07-10T09:46:40.525Z,52.92
2017-07-10T09:47:40.231Z,52.8
2017-07-10T09:48:40.583Z,52.92
2017-07-10T09:49:40.308Z,53.02
2017-07-10T09:50:40.638Z,52.83
2017-07-10T09:51:40.685Z,52.92
2017-07-10T09:52:40.705Z,52.73
2017-07-10T09:53:40.738Z,52.83
2017-07-10T09:54:40.769Z,53.02
2017-07-10T09:55:40.797Z,52.83
2017-07-10T09:56:40.501Z,52.92
2017-07-10T09:57:40.538Z,52.92
2017-07-10T09:58:40.566Z,52.83
2017-07-10T09:59:40.599Z,53.02
2017-07-10T10:00:40.628Z,52.24
2017-07-10T10:01:40.987Z,52.34
2017-07-10T10:02:41.021Z,52.34
2017-07-10T10:03:40.722Z,52.24
2017-07-10T10:04:41.064Z,52.24
2017-07-10T10:05:41.107Z,51.75
2017-07-10T10:06:41.135Z,51.85
2017-07-10T10:07:41.175Z,51.78
2017-07-10T10:08:41.187Z,51.75
2017-07-10T10:09:41.233Z,52.14
2017-07-10T10:10:41.262Z,52.26
2017-07-10T10:11:41.283Z,52.17
2017-07-10T10:12:41.000Z,52.36
2017-07-10T10:13:41.032Z,52.17
2017-07-10T10:14:41.381Z,51.78
2017-07-10T10:15:41.094Z,51.97
2017-07-10T10:16:41.737Z,51.87
2017-07-10T10:17:41.153Z,51.68
2017-07-10T10:18:41.507Z,51.97
2017-07-10T10:19:41.536Z,51.78
2017-07-10T10:20:41.569Z,51.97
2017-07-10T10:21:41.845Z,51.48
2017-07-10T10:22:41.618Z,51.09
2017-07-10T10:23:41.650Z,51.19
2017-07-10T10:24:41.688Z,51.87
2017-07-10T10:25:41.398Z,51.29
2017-07-10T10:26:41.729Z,51.58
2017-07-10T10:27:41.774Z,51.58
2017-07-10T10:28:41.487Z,51.29
2017-07-10T10:29:41.524Z,51.68
2017-07-10T10:30:41.544Z,51.29
2017-07-10T10:31:41.877Z,51.48
2017-07-10T10:32:41.927Z,52.07
2017-07-10T10:33:41.640Z,51.87
2017-07-10T10:34:41.676Z,51.78
2017-07-10T10:35:41.701Z,51.58
2017-07-10T10:36:42.306Z,52.07
2017-07-10T10:37:41.767Z,52.04
2017-07-10T10:38:41.795Z,51.85
2017-07-10T10:39:42.140Z,51.97
2017-07-10T10:40:41.856Z,52.34
2017-07-10T10:41:41.885Z,52.56
2017-07-10T10:42:41.919Z,52.53
2017-07-10T10:43:42.266Z,52.63
2017-07-10T10:44:41.983Z,52.17
2017-07-10T10:45:42.009Z,51.97
2017-07-10T10:46:42.362Z,52.04
2017-07-10T10:47:42.390Z,51.65
2017-07-10T10:48:42.424Z,51.95
2017-07-10T10:49:42.133Z,51.95
2017-07-10T10:50:42.486Z,52.14
2017-07-10T10:51:42.197Z,52.26
2017-07-10T10:52:42.536Z,52.44
2017-07-10T10:53:42.594Z,52.17
2017-07-10T10:54:42.608Z,51.78
2017-07-10T10:55:42.658Z,51.87
2017-07-10T10:56:42.673Z,51.87
2017-07-10T10:57:42.691Z,51.68
2017-07-10T10:58:42.724Z,51.97
2017-07-10T10:59:42.757Z,51.87
2017-07-10T11:00:42.790Z,52.17
2017-07-10T11:01:42.817Z,51.68
2017-07-10T11:02:42.532Z,52.07
2017-07-10T11:03:42.884Z,51.97
2017-07-10T11:04:42.593Z,51.87
2017-07-10T11:05:42.625Z,52.36
2017-07-10T11:06:42.974Z,51.68
2017-07-10T11:07:42.728Z,51.68
2017-07-10T11:08:43.023Z,51.78
2017-07-10T11:09:43.062Z,51.68
2017-07-10T11:10:42.773Z,51.58
2017-07-10T11:11:43.133Z,52.17
2017-07-10T11:12:42.840Z,51.68
2017-07-10T11:13:43.196Z,52.07
2017-07-10T11:14:42.901Z,51.58
2017-07-10T11:15:43.262Z,51.48
2017-07-10T11:16:42.963Z,51.87
2017-07-10T11:17:42.992Z,50.6
2017-07-10T11:18:43.339Z,50.7
2017-07-10T11:19:43.373Z,51.29
2017-07-10T11:20:43.086Z,50.99
2017-07-10T11:21:43.439Z,50.7
2017-07-10T11:22:43.146Z,50.9
2017-07-10T11:23:43.502Z,50.7
2017-07-10T11:24:43.209Z,50.9
2017-07-10T11:25:43.247Z,50.8
2017-07-10T11:26:43.273Z,51.19
2017-07-10T11:27:43.920Z,50.8
2017-07-10T11:28:43.655Z,50.63
2017-07-10T11:29:43.703Z,50.41
2017-07-10T11:30:43.400Z,50.73
2017-07-10T11:31:43.431Z,51.02
2017-07-10T11:32:44.088Z,50.53
2017-07-10T11:33:43.820Z,51.21
2017-07-10T11:34:43.839Z,50.63
2017-07-10T11:35:43.884Z,50.14
2017-07-10T11:36:43.587Z,50.04
2017-07-10T11:37:44.235Z,50.14
2017-07-10T11:38:43.965Z,50.24
2017-07-10T11:39:43.680Z,49.56
2017-07-10T11:40:44.033Z,49.85
2017-07-10T11:41:44.065Z,49.56
2017-07-10T11:42:44.064Z,49.49
2017-07-10T11:43:43.802Z,49.49
2017-07-10T11:44:44.143Z,49.76
2017-07-10T11:45:44.183Z,49.88
2017-07-10T11:46:43.892Z,49.68
2017-07-10T11:47:44.177Z,49.68
2017-07-10T11:48:44.278Z,49.58
2017-07-10T11:49:44.307Z,49.1
2017-07-10T11:50:44.336Z,49.19
2017-07-10T11:51:44.368Z,49.19
2017-07-10T11:52:44.646Z,49.32
2017-07-10T11:53:44.106Z,48.32
2017-07-10T11:54:44.146Z,49.12
2017-07-10T11:55:44.207Z,48.34
2017-07-10T11:56:44.201Z,48.93
2017-07-10T11:57:44.810Z,48.73
2017-07-10T11:58:44.587Z,48.34
2017-07-10T11:59:44.619Z,48.73
2017-07-10T12:00:44.652Z,48.63
2017-07-10T12:01:44.674Z,47.87
2017-07-10T12:02:44.965Z,47.66
2017-07-10T12:03:44.423Z,46.8
2017-07-10T12:04:44.779Z,47.19
2017-07-10T12:05:44.805Z,46.8
2017-07-10T12:06:44.847Z,46.6
2017-07-10T12:07:44.802Z,46.7
2017-07-10T12:08:44.587Z,46.23
2017-07-10T12:09:44.938Z,46.14
2017-07-10T12:10:44.974Z,45.65
2017-07-10T12:11:44.691Z,45.75
2017-07-10T12:12:44.962Z,45.84
2017-07-10T12:13:44.751Z,44.87
2017-07-10T12:14:44.776Z,44.96
2017-07-10T12:15:45.126Z,45.28
2017-07-10T12:16:45.163Z,45.26
2017-07-10T12:17:45.175Z,44.87
2017-07-10T12:18:45.228Z,45.37
2017-07-10T12:19:44.938Z,45.47
2017-07-10T12:20:45.293Z,44.4
2017-07-10T12:21:45.006Z,44.59
2017-07-10T12:22:45.655Z,44.4
2017-07-10T12:23:45.072Z,43.93
2017-07-10T12:24:45.421Z,43.44
2017-07-10T12:25:45.130Z,43.63
2017-07-10T12:26:45.482Z,43.63
2017-07-10T12:27:45.196Z,43.17
2017-07-10T12:28:45.555Z,43.15
2017-07-10T12:29:45.261Z,42.85
2017-07-10T12:30:45.294Z,42.97
2017-07-10T12:31:45.648Z,42.78
2017-07-10T12:32:45.363Z,42.19
2017-07-10T12:33:45.389Z,42.09
2017-07-10T12:34:45.428Z,41.89
2017-07-10T12:35:45.458Z,41.99
2017-07-10T12:36:45.807Z,42.68
2017-07-10T12:37:45.840Z,42.68
2017-07-10T12:38:45.877Z,42.38
2017-07-10T12:39:45.593Z,41.99
2017-07-10T12:40:45.944Z,41.5
2017-07-10T12:41:45.983Z,42.09
2017-07-10T12:42:46.011Z,41.62
2017-07-10T12:43:45.730Z,41.23
2017-07-10T12:44:46.076Z,42.31
2017-07-10T12:45:46.115Z,41.92
2017-07-10T12:46:45.819Z,41.82
2017-07-10T12:47:45.853Z,41.52
2017-07-10T12:48:46.205Z,41.52
2017-07-10T12:49:45.919Z,40.64
2017-07-10T12:50:46.268Z,41.13
2017-07-10T12:51:45.984Z,41.72
2017-07-10T12:52:46.336Z,41.52
2017-07-10T12:53:46.368Z,41.03
2017-07-10T12:54:46.086Z,40.84
2017-07-10T12:55:46.447Z,41.52